Aviation Digital Data Service (ADDS)

Output produced by METARs form (2208 UTC 01 February 2023)
found at http://www.aviationweather.gov/metar/data/
 
KCHA 012153Z 04005KT 10SM SCT017 BKN022 OVC085 07/03 A3024 RMK AO2 SLP242 T00670028
KCHA 011727Z 0118/0218 02006KT P6SM BKN015 OVC050 
     FM020500 00000KT 6SM BR OVC015 
     TEMPO 0205/0209 4SM -RA BR OVC008 
     FM020900 VRB04KT 5SM -RA BR OVC010